Time;durP1;ratioP1;P1;durP2;ratioP2;P2;SDS_P1;SDS_P2;PMS_P1;PMS_P2;Temp;Humidity;BMP_temperature;BMP_pressure;BME280_temperature;BME280_humidity;BME280_pressure;Samples;Min_cycle;Max_cycle;Signal;HPM_P1;HPM_P2
2021/08/23 00:02:28;;;;;;;1.83;1.40;;;17.10;99.90;17.20;96967.00;;;;5108725;28;20708;-67
2021/08/23 00:05:18;;;;;;;0.77;0.70;;;17.10;99.90;17.10;96967.00;;;;5110473;28;20206;-68
2021/08/23 00:08:07;;;;;;;1.63;0.70;;;17.00;99.90;17.10;96974.00;;;;5090790;28;20195;-67
2021/08/23 00:10:56;;;;;;;3.13;0.90;;;16.90;99.90;16.90;96962.00;;;;5109795;28;20230;-67
2021/08/23 00:13:45;;;;;;;2.13;1.10;;;16.80;99.90;16.90;96961.00;;;;5108818;28;20218;-66
2021/08/23 00:16:34;;;;;;;3.43;1.07;;;16.80;99.90;16.90;96955.00;;;;5082908;28;20204;-66
2021/08/23 00:19:23;;;;;;;4.17;2.80;;;16.70;99.90;17.00;96927.00;;;;5092628;28;20203;-66
2021/08/23 00:22:30;;;;;;;1.30;0.83;;;16.70;99.90;16.90;96919.00;;;;5088866;28;20233;-67
2021/08/23 00:25:20;;;;;;;4.27;1.40;;;16.70;99.90;16.70;96916.00;;;;5089563;28;20682;-65
2021/08/23 00:28:10;;;;;;;0.77;0.70;;;16.70;99.90;16.60;96913.00;;;;5088973;28;20218;-67
2021/08/23 00:31:00;;;;;;;2.57;0.90;;;16.60;99.90;16.50;96922.00;;;;5089393;28;20229;-66
2021/08/23 00:33:49;;;;;;;1.13;0.80;;;16.60;99.90;16.50;96909.00;;;;5088267;28;20215;-67
2021/08/23 00:36:37;;;;;;;3.23;1.20;;;16.50;99.90;16.60;96912.00;;;;5089358;28;20203;-66
2021/08/23 00:39:28;;;;;;;1.40;1.00;;;16.50;99.90;16.60;96910.00;;;;5088933;28;20191;-66
2021/08/23 00:42:17;;;;;;;1.53;0.70;;;16.50;99.90;16.50;96901.00;;;;5089180;28;20223;-66
2021/08/23 00:45:08;;;;;;;3.33;1.30;;;16.50;99.90;16.60;96903.00;;;;5089274;28;20195;-66
2021/08/23 00:47:57;;;;;;;1.47;0.73;;;16.40;99.90;16.60;96896.00;;;;5088475;28;20214;-66
2021/08/23 00:50:46;;;;;;;1.00;0.87;;;16.40;99.90;16.50;96907.00;;;;5083440;28;20638;-66
2021/08/23 00:53:35;;;;;;;0.73;0.60;;;16.40;99.90;16.50;96906.00;;;;5091662;28;20233;-66
2021/08/23 00:56:25;;;;;;;3.27;1.00;;;16.40;99.90;16.50;96911.00;;;;5109850;28;20569;-66
2021/08/23 00:59:14;;;;;;;1.03;0.70;;;16.30;99.90;16.50;96901.00;;;;5107846;28;20689;-65
2021/08/23 01:02:12;;;;;;;2.47;0.70;;;16.30;99.90;16.50;96896.00;;;;5108817;28;20210;-65
2021/08/23 01:05:11;;;;;;;4.10;0.60;;;17.00;99.90;16.50;96907.00;;;;5107518;28;20237;-67
2021/08/23 01:08:08;;;;;;;1.47;0.70;;;16.30;99.90;16.50;96909.00;;;;5109648;28;20202;-66
2021/08/23 01:11:00;;;;;;;0.57;0.57;;;16.30;99.90;16.30;96910.00;;;;5062568;28;20232;-66
2021/08/23 01:13:51;;;;;;;1.23;0.60;;;16.30;99.90;16.30;96937.00;;;;5067383;28;20231;-66
2021/08/23 01:16:40;;;;;;;4.73;0.77;;;16.20;99.90;16.30;96930.00;;;;5071869;28;20204;-65
2021/08/23 01:19:31;;;;;;;1.03;0.70;;;16.20;99.90;16.40;96934.00;;;;5104136;28;20205;-66
2021/08/23 01:22:20;;;;;;;0.93;0.60;;;16.20;99.90;16.40;96929.00;;;;5108025;28;20230;-65
2021/08/23 01:25:12;;;;;;;1.23;1.10;;;16.20;99.90;16.40;96938.00;;;;5108348;28;20202;-66
2021/08/23 01:28:10;;;;;;;2.10;0.80;;;16.20;99.90;16.20;96945.00;;;;5108909;28;20202;-66
2021/08/23 01:31:16;;;;;;;1.23;0.70;;;15.50;99.90;16.00;96950.00;;;;5108639;28;20855;-66
2021/08/23 01:34:09;;;;;;;1.00;0.80;;;16.10;99.90;16.00;96965.00;;;;5108516;28;20225;-66
2021/08/23 01:36:58;;;;;;;3.67;0.80;;;16.00;99.90;16.00;96955.00;;;;5107522;28;20202;-66
2021/08/23 01:39:47;;;;;;;3.23;1.07;;;16.00;99.90;16.10;96952.00;;;;5109625;27;20693;-66
2021/08/23 01:42:36;;;;;;;2.17;0.70;;;16.00;99.90;16.20;96963.00;;;;5091280;28;20234;-66
2021/08/23 01:45:25;;;;;;;6.23;1.00;;;16.00;99.90;16.20;96965.00;;;;5091798;28;20199;-66
2021/08/23 01:48:13;;;;;;;4.07;0.93;;;16.50;99.90;16.20;96972.00;;;;5087998;28;20197;-66
2021/08/23 01:51:04;;;;;;;2.03;1.37;;;16.00;99.90;16.00;96965.00;;;;5087547;28;20265;-66
2021/08/23 01:53:53;;;;;;;0.80;0.60;;;16.00;99.90;16.00;96971.00;;;;5088025;28;20226;-66
2021/08/23 01:56:43;;;;;;;3.47;1.10;;;15.90;99.90;16.00;96981.00;;;;5086659;28;20629;-66
2021/08/23 01:59:32;;;;;;;2.60;0.97;;;15.90;99.90;16.10;96982.00;;;;5087761;28;20571;-65
2021/08/23 02:02:21;;;;;;;1.83;0.80;;;15.90;99.90;16.10;96983.00;;;;5086364;28;20254;-65
2021/08/23 02:05:10;;;;;;;1.77;0.93;;;15.90;99.90;16.10;96993.00;;;;5087101;28;20237;-65
2021/08/23 02:08:01;;;;;;;1.00;0.80;;;15.90;99.90;16.10;96992.00;;;;5081416;28;20689;-66
2021/08/23 02:10:50;;;;;;;4.33;1.00;;;15.90;99.90;16.10;96988.00;;;;5085866;28;20331;-66
2021/08/23 02:13:40;;;;;;;1.90;0.80;;;15.90;99.90;16.20;96991.00;;;;5085799;28;20234;-66
2021/08/23 02:16:29;;;;;;;1.47;0.80;;;16.00;99.90;16.20;96989.00;;;;5087016;28;20199;-66
2021/08/23 02:19:18;;;;;;;1.40;0.63;;;16.00;99.90;15.80;96971.00;;;;5087082;28;20199;-65
2021/08/23 02:22:09;;;;;;;1.20;0.63;;;15.90;99.90;15.80;96983.00;;;;5087611;28;20212;-66
2021/08/23 02:25:00;;;;;;;0.70;0.47;;;15.80;99.90;15.90;96984.00;;;;5088131;28;20203;-66
2021/08/23 02:27:49;;;;;;;0.90;0.70;;;15.80;99.90;16.00;96974.00;;;;5086266;28;20682;-66
2021/08/23 02:30:39;;;;;;;3.60;1.07;;;15.80;99.90;15.90;96967.00;;;;5085487;28;20581;-65
2021/08/23 02:33:27;;;;;;;0.70;0.70;;;15.80;99.90;15.90;96953.00;;;;5085784;28;20645;-66
2021/08/23 02:36:16;;;;;;;1.60;0.77;;;15.80;99.90;16.00;96959.00;;;;5106100;28;20197;-66
2021/08/23 02:39:06;;;;;;;3.20;1.13;;;15.80;99.90;16.10;96949.00;;;;5105315;28;20202;-66
2021/08/23 02:41:56;;;;;;;1.47;0.90;;;15.80;99.90;16.10;96951.00;;;;5105630;28;20617;-66
2021/08/23 02:44:45;;;;;;;4.70;1.30;;;15.80;99.90;15.90;96951.00;;;;5106071;28;20198;-66
2021/08/23 02:47:36;;;;;;;2.37;1.00;;;15.80;99.90;15.80;96942.00;;;;5106101;28;20237;-65
2021/08/23 02:50:25;;;;;;;2.13;0.80;;;15.80;99.90;15.80;96930.00;;;;5106134;28;20560;-66
2021/08/23 02:53:15;;;;;;;3.40;0.90;;;15.80;99.90;15.90;96926.00;;;;5081273;28;20204;-66
2021/08/23 02:56:05;;;;;;;0.60;0.60;;;15.80;99.90;15.90;96933.00;;;;5098900;28;20195;-65
2021/08/23 02:58:55;;;;;;;4.23;1.43;;;15.80;99.90;15.90;96943.00;;;;5107010;28;20578;-65
2021/08/23 03:01:44;;;;;;;0.80;0.60;;;15.70;99.90;15.80;96943.00;;;;5106766;28;20215;-65
2021/08/23 03:04:33;;;;;;;1.00;0.90;;;15.80;99.90;15.80;96946.00;;;;5105933;28;20547;-66
2021/08/23 03:07:22;;;;;;;6.67;1.13;;;15.70;99.90;15.50;96949.00;;;;5088180;28;20205;-66
2021/08/23 03:10:11;;;;;;;1.00;0.50;;;15.70;99.90;15.50;96956.00;;;;5104077;28;20206;-66
2021/08/23 03:13:00;;;;;;;1.00;0.80;;;15.60;99.90;15.50;96968.00;;;;5107851;27;20288;-66
2021/08/23 03:15:51;;;;;;;0.80;0.63;;;15.60;99.90;15.40;96981.00;;;;5105840;28;20604;-65
2021/08/23 03:18:40;;;;;;;0.90;0.70;;;15.60;99.90;15.40;96976.00;;;;5106516;28;20215;-65
2021/08/23 03:21:29;;;;;;;3.97;0.80;;;15.50;99.90;15.50;96985.00;;;;5094769;28;20223;-66
2021/08/23 03:24:18;;;;;;;3.03;1.23;;;15.50;99.90;15.40;96999.00;;;;5091841;28;20188;-66
2021/08/23 03:27:08;;;;;;;1.47;0.73;;;15.50;99.90;15.40;96986.00;;;;5105345;28;20201;-65
2021/08/23 03:29:57;;;;;;;1.70;0.70;;;15.50;99.90;15.60;96997.00;;;;5106021;28;20194;-65
2021/08/23 03:32:48;;;;;;;2.40;1.03;;;15.50;99.90;15.60;97001.00;;;;5107051;28;20314;-66
2021/08/23 03:35:37;;;;;;;1.13;1.03;;;15.50;99.90;15.60;96996.00;;;;5106140;28;20222;-65
2021/08/23 03:38:26;;;;;;;3.93;1.27;;;15.50;99.90;15.70;97002.00;;;;5106565;28;20207;-64
2021/08/23 03:41:15;;;;;;;1.83;1.20;;;15.50;99.90;15.70;96998.00;;;;5104976;28;20214;-65
2021/08/23 03:44:05;;;;;;;0.70;0.67;;;15.60;99.90;15.70;97001.00;;;;5106396;28;20213;-66
2021/08/23 03:46:54;;;;;;;1.80;1.00;;;15.60;99.90;15.70;97003.00;;;;5107036;28;20198;-64
2021/08/23 03:49:44;;;;;;;0.70;0.60;;;15.60;99.90;15.70;96999.00;;;;5100507;28;20278;-66
2021/08/23 03:52:33;;;;;;;1.23;0.87;;;15.50;99.90;15.50;97010.00;;;;5082996;28;20234;-64
2021/08/23 03:55:23;;;;;;;1.37;0.60;;;15.50;99.90;15.40;96999.00;;;;5084493;28;20698;-66
2021/08/23 03:58:11;;;;;;;1.43;0.83;;;15.50;99.90;15.50;97011.00;;;;5084971;28;20195;-65
2021/08/23 04:01:00;;;;;;;2.87;0.93;;;15.50;99.90;15.40;97004.00;;;;5085805;28;20219;-67
2021/08/23 04:03:51;;;;;;;1.03;0.63;;;15.50;99.90;15.50;97007.00;;;;5086318;28;20827;-65
2021/08/23 04:06:44;;;;;;;1.87;0.90;;;15.40;99.90;15.60;97012.00;;;;5085486;28;20217;-66
2021/08/23 04:09:34;;;;;;;0.67;0.60;;;15.40;99.90;15.60;97009.00;;;;5097918;28;20269;-66
2021/08/23 04:12:23;;;;;;;1.00;0.70;;;15.50;99.90;15.60;97012.00;;;;5104771;28;20230;-66
2021/08/23 04:15:12;;;;;;;0.90;0.60;;;15.50;99.90;15.60;97006.00;;;;5104094;28;20215;-65
2021/08/23 04:18:01;;;;;;;0.87;0.60;;;15.50;99.90;15.50;97011.00;;;;5104278;28;20198;-66
2021/08/23 04:20:50;;;;;;;0.70;0.57;;;15.50;99.90;15.50;97010.00;;;;5106746;28;20243;-65
2021/08/23 04:23:40;;;;;;;1.47;0.87;;;15.40;99.90;15.50;97020.00;;;;5105541;28;20240;-66
2021/08/23 04:26:29;;;;;;;2.53;0.90;;;15.50;99.90;15.60;97022.00;;;;5095277;28;20194;-66
2021/08/23 04:29:18;;;;;;;2.73;0.97;;;15.50;99.90;15.50;97028.00;;;;5105390;28;20244;-66
2021/08/23 04:32:08;;;;;;;3.47;1.07;;;15.50;99.90;15.60;97024.00;;;;5084447;28;20215;-65
2021/08/23 04:34:57;;;;;;;0.83;0.73;;;15.40;99.90;15.60;97026.00;;;;5086107;28;20219;-65
2021/08/23 04:37:46;;;;;;;1.30;0.70;;;15.50;99.90;15.70;97033.00;;;;5086174;28;20199;-65
2021/08/23 04:40:37;;;;;;;1.03;0.70;;;15.40;99.90;15.70;97027.00;;;;5086795;28;20206;-66
2021/08/23 04:43:25;;;;;;;0.73;0.70;;;15.50;99.90;15.60;97022.00;;;;5089235;28;20192;-66
2021/08/23 04:46:14;;;;;;;1.10;0.63;;;15.50;99.90;15.70;97027.00;;;;5089039;28;20196;-67
2021/08/23 04:49:04;;;;;;;0.70;0.60;;;15.50;99.90;15.70;97018.00;;;;5088054;28;20207;-65
2021/08/23 04:51:53;;;;;;;2.93;0.63;;;15.50;99.90;15.70;97018.00;;;;5088687;28;20219;-65
2021/08/23 04:54:42;;;;;;;2.83;0.80;;;15.50;99.90;15.70;97001.00;;;;5088364;28;20215;-66
2021/08/23 04:57:32;;;;;;;0.60;0.60;;;15.50;99.90;15.70;97006.00;;;;5086535;28;20729;-65
2021/08/23 05:00:21;;;;;;;1.87;1.10;;;15.50;99.90;15.70;96991.00;;;;5089372;28;20191;-66
2021/08/23 05:03:11;;;;;;;1.57;0.87;;;15.50;99.90;15.80;97004.00;;;;5069175;28;20227;-66
2021/08/23 05:06:00;;;;;;;1.17;0.83;;;15.50;99.90;15.70;96991.00;;;;5068522;28;20196;-64
2021/08/23 05:08:49;;;;;;;3.87;1.10;;;15.50;99.90;15.70;96979.00;;;;5075469;28;20226;-66
2021/08/23 05:11:39;;;;;;;2.50;2.30;;;15.50;99.90;15.70;96977.00;;;;5082188;28;20710;-66
2021/08/23 05:14:29;;;;;;;1.60;1.47;;;15.50;99.90;15.60;96973.00;;;;5089681;28;20207;-66
2021/08/23 05:17:18;;;;;;;2.80;1.50;;;15.50;99.90;15.60;96984.00;;;;5089664;28;20203;-65
2021/08/23 05:20:08;;;;;;;4.83;1.00;;;15.50;99.90;15.40;96992.00;;;;5088911;28;20206;-65
2021/08/23 05:22:57;;;;;;;1.43;1.33;;;15.50;99.90;15.50;96998.00;;;;5099451;28;20199;-66
2021/08/23 05:25:46;;;;;;;1.30;0.80;;;15.50;99.90;15.50;96989.00;;;;5088231;28;20205;-65
2021/08/23 05:28:35;;;;;;;2.40;1.67;;;15.50;99.90;15.70;97003.00;;;;5088772;28;20210;-66
2021/08/23 05:31:26;;;;;;;3.50;1.53;;;15.50;99.90;15.70;97007.00;;;;5088135;28;20229;-66
2021/08/23 05:34:15;;;;;;;19.33;1.97;;;15.50;99.90;15.90;96996.00;;;;5087915;28;20298;-64
2021/08/23 05:37:04;;;;;;;5.13;1.20;;;15.50;99.90;16.00;97009.00;;;;5087792;28;20223;-65
2021/08/23 05:39:53;;;;;;;1.50;0.90;;;15.60;99.90;16.00;97017.00;;;;5089160;28;20206;-65
2021/08/23 05:42:42;;;;;;;2.07;1.60;;;15.60;99.90;16.00;97024.00;;;;5088678;28;20234;-65
2021/08/23 05:45:31;;;;;;;2.20;1.33;;;15.60;99.90;16.20;97023.00;;;;5088700;28;20191;-64
2021/08/23 05:48:22;;;;;;;1.37;1.27;;;15.70;99.90;16.10;97013.00;;;;5109102;28;20571;-65
2021/08/23 05:51:14;;;;;;;1.30;1.20;;;15.70;99.90;16.10;97012.00;;;;5096703;28;20333;-66
2021/08/23 05:54:03;;;;;;;2.00;0.73;;;15.80;99.90;16.20;97018.00;;;;5089665;28;20208;-65
2021/08/23 05:56:52;;;;;;;1.40;1.10;;;15.70;99.90;16.10;97009.00;;;;5088019;28;20737;-65
2021/08/23 05:59:42;;;;;;;2.93;1.13;;;15.80;99.90;16.20;97020.00;;;;5087810;28;20206;-64
2021/08/23 06:02:31;;;;;;;1.53;0.90;;;15.80;99.90;16.30;97021.00;;;;5087812;28;20594;-65
2021/08/23 06:05:21;;;;;;;1.17;1.03;;;15.80;99.90;16.40;97041.00;;;;5088138;28;20207;-64
2021/08/23 06:08:10;;;;;;;1.43;1.03;;;15.90;99.90;16.50;97036.00;;;;5088975;28;20183;-65
2021/08/23 06:10:59;;;;;;;3.13;1.60;;;16.00;99.90;16.30;97028.00;;;;5107220;28;20757;-65
2021/08/23 06:13:48;;;;;;;1.57;1.27;;;16.00;99.90;16.00;97039.00;;;;5107670;28;20197;-64
2021/08/23 06:16:37;;;;;;;2.97;2.77;;;16.00;99.90;16.00;97031.00;;;;5084659;28;20228;-65
2021/08/23 06:19:26;;;;;;;1.77;1.67;;;15.90;99.90;16.30;97036.00;;;;5082603;28;20242;-65
2021/08/23 06:22:16;;;;;;;2.67;1.60;;;16.00;99.90;16.40;97033.00;;;;5086204;28;20223;-66
2021/08/23 06:25:07;;;;;;;2.03;1.17;;;16.00;99.90;16.60;97029.00;;;;5087976;28;20199;-66
2021/08/23 06:27:56;;;;;;;1.53;1.43;;;16.10;99.90;16.80;97038.00;;;;5087290;28;20206;-65
2021/08/23 06:30:45;;;;;;;1.60;1.40;;;16.20;99.90;17.00;97039.00;;;;5087865;28;20231;-66
2021/08/23 06:33:35;;;;;;;1.97;1.00;;;16.30;99.90;17.10;97035.00;;;;5086915;28;20200;-66
2021/08/23 06:36:24;;;;;;;1.50;1.13;;;16.40;99.90;16.90;97035.00;;;;5086074;28;20223;-66
2021/08/23 06:39:14;;;;;;;2.33;0.90;;;16.50;99.90;17.00;97039.00;;;;5086165;28;20206;-65
2021/08/23 06:42:05;;;;;;;1.60;0.90;;;16.50;99.90;16.80;97041.00;;;;5086253;28;20218;-64
2021/08/23 06:44:54;;;;;;;0.83;0.80;;;16.60;99.90;17.00;97033.00;;;;5085854;28;20206;-65
2021/08/23 06:47:43;;;;;;;1.00;0.90;;;16.60;99.90;17.00;97031.00;;;;5105715;28;20708;-65
2021/08/23 06:50:32;;;;;;;2.17;1.03;;;16.60;99.90;17.00;97030.00;;;;5104896;28;20299;-64
2021/08/23 06:53:20;;;;;;;1.57;1.30;;;16.70;99.90;16.90;97026.00;;;;5090429;28;20973;-65
2021/08/23 06:56:11;;;;;;;3.33;0.83;;;16.70;99.90;16.90;97038.00;;;;5069353;28;20220;-64
2021/08/23 06:59:00;;;;;;;2.40;0.97;;;16.70;99.90;17.10;97036.00;;;;5060739;28;20215;-65
2021/08/23 07:01:49;;;;;;;0.70;0.70;;;16.70;99.90;17.10;97031.00;;;;5059740;28;20216;-66
2021/08/23 07:04:38;;;;;;;0.87;0.77;;;16.70;99.90;17.30;97027.00;;;;5059395;28;20192;-65
2021/08/23 07:07:28;;;;;;;1.97;0.60;;;16.80;99.90;17.30;97025.00;;;;5058104;28;20627;-66
2021/08/23 07:10:17;;;;;;;2.20;0.87;;;16.90;99.90;17.40;97018.00;;;;5072641;28;20223;-65
2021/08/23 07:13:08;;;;;;;1.57;0.83;;;16.90;99.90;17.60;97026.00;;;;5087784;28;20201;-66
2021/08/23 07:15:57;;;;;;;4.23;1.00;;;17.00;99.90;17.50;97018.00;;;;5091550;28;20768;-65
2021/08/23 07:18:46;;;;;;;1.23;0.77;;;17.10;99.90;17.70;97018.00;;;;5089027;28;20729;-64
2021/08/23 07:21:34;;;;;;;1.10;0.80;;;17.20;99.90;17.90;97017.00;;;;5080543;28;20699;-66
2021/08/23 07:24:23;;;;;;;0.77;0.77;;;17.30;99.90;18.00;97010.00;;;;5074262;28;20837;-66
2021/08/23 07:27:13;;;;;;;0.83;0.77;;;17.40;99.90;18.20;97011.00;;;;5084193;28;20567;-65
2021/08/23 07:30:05;;;;;;;1.10;1.00;;;17.50;99.90;18.20;97011.00;;;;5077286;28;20203;-67
2021/08/23 07:32:54;;;;;;;1.17;1.07;;;17.60;99.90;17.90;97021.00;;;;5080010;28;20200;-67
2021/08/23 07:35:43;;;;;;;7.57;2.33;;;17.60;99.90;17.80;97019.00;;;;5080309;28;20213;-66
2021/08/23 07:38:32;;;;;;;2.10;1.30;;;17.50;99.90;17.60;97024.00;;;;5083950;28;20210;-67
2021/08/23 07:41:21;;;;;;;2.30;1.10;;;17.50;99.90;17.80;97019.00;;;;5084627;28;20590;-65
2021/08/23 07:44:09;;;;;;;1.00;1.00;;;17.50;99.90;18.00;97019.00;;;;5081166;28;20214;-67
2021/08/23 07:47:00;;;;;;;1.70;1.50;;;17.50;99.90;18.10;97027.00;;;;5084353;28;20198;-66
2021/08/23 07:49:49;;;;;;;4.50;1.13;;;17.60;99.90;18.50;97034.00;;;;5081430;28;20199;-66
2021/08/23 07:52:38;;;;;;;1.23;1.13;;;17.80;99.90;18.80;97024.00;;;;5076855;28;20251;-67
2021/08/23 07:55:27;;;;;;;3.37;3.07;;;17.90;99.90;19.00;97011.00;;;;5080958;28;20229;-66
2021/08/23 07:58:16;;;;;;;3.17;1.27;;;18.20;99.90;19.20;97009.00;;;;5079301;28;20558;-67
2021/08/23 08:01:05;;;;;;;3.30;1.03;;;18.30;99.90;19.40;96998.00;;;;5081967;28;20226;-66
2021/08/23 08:03:55;;;;;;;2.33;1.20;;;18.50;99.90;19.70;97007.00;;;;5078856;28;20203;-67
2021/08/23 08:06:44;;;;;;;1.50;1.40;;;18.70;99.90;19.60;97000.00;;;;5079595;28;20203;-66
2021/08/23 08:09:33;;;;;;;1.43;1.13;;;18.90;99.90;19.50;97006.00;;;;5078117;28;20210;-66
2021/08/23 08:12:22;;;;;;;1.40;1.30;;;18.90;99.90;19.20;97008.00;;;;5075831;28;20235;-67
2021/08/23 08:15:12;;;;;;;2.20;1.43;;;18.90;99.90;19.20;97014.00;;;;5085006;28;20586;-67
2021/08/23 08:18:01;;;;;;;3.23;1.00;;;18.80;99.90;19.00;97008.00;;;;5078713;28;20273;-67
2021/08/23 08:20:52;;;;;;;1.13;1.00;;;18.70;99.90;19.10;97001.00;;;;5085338;28;20233;-67
2021/08/23 08:23:41;;;;;;;1.30;1.07;;;18.60;99.90;19.20;97004.00;;;;5091956;28;20225;-67
2021/08/23 08:26:30;;;;;;;1.67;1.23;;;18.70;99.90;19.10;97000.00;;;;5086538;28;20227;-67
2021/08/23 08:29:18;;;;;;;1.53;1.17;;;18.70;99.90;19.00;96996.00;;;;5077693;28;20694;-67
2021/08/23 08:32:08;;;;;;;1.37;1.20;;;18.60;99.90;18.90;96987.00;;;;5087634;28;20225;-66
2021/08/23 08:34:57;;;;;;;1.97;1.23;;;18.60;99.90;19.00;96984.00;;;;5090648;28;20209;-66
2021/08/23 08:37:48;;;;;;;3.73;1.00;;;18.50;99.90;19.20;96977.00;;;;5087881;28;20223;-66
2021/08/23 08:40:37;;;;;;;1.40;1.30;;;18.60;99.90;19.20;96988.00;;;;5091222;28;20207;-67
2021/08/23 08:43:26;;;;;;;3.77;1.50;;;18.60;99.90;19.60;96984.00;;;;5084859;28;20696;-67
2021/08/23 08:46:14;;;;;;;2.13;1.30;;;18.80;99.90;19.70;96989.00;;;;5097193;28;20210;-67
2021/08/23 08:49:05;;;;;;;1.40;1.10;;;18.90;99.90;19.60;96996.00;;;;5090314;28;20229;-67
2021/08/23 08:51:55;;;;;;;1.60;1.50;;;19.00;99.90;19.50;96983.00;;;;5087949;28;20743;-67
2021/08/23 08:54:45;;;;;;;2.53;1.10;;;19.10;99.90;19.40;97002.00;;;;5090228;28;20599;-67
2021/08/23 08:57:34;;;;;;;1.10;1.00;;;19.10;99.90;19.40;96997.00;;;;5091648;28;20227;-67
2021/08/23 09:00:23;;;;;;;2.17;1.57;;;19.00;99.90;19.50;97004.00;;;;5099591;28;20238;-67
2021/08/23 09:03:12;;;;;;;2.30;1.43;;;19.00;99.90;19.50;97004.00;;;;5093855;28;20199;-66
2021/08/23 09:06:07;;;;;;;1.27;1.17;;;19.00;99.90;19.50;96991.00;;;;5079987;28;20746;-67
2021/08/23 09:08:56;;;;;;;2.53;1.27;;;19.00;99.90;19.60;96998.00;;;;5087161;28;20203;-67
2021/08/23 09:11:57;;;;;;;1.30;1.20;;;19.00;99.90;19.60;97011.00;;;;5095636;28;20258;-67
2021/08/23 09:14:52;;;;;;;2.53;1.10;;;19.00;99.90;19.60;97008.00;;;;5089700;28;20210;-67
2021/08/23 09:17:41;;;;;;;2.70;1.67;;;19.00;99.90;19.40;97006.00;;;;5085687;28;20211;-67
2021/08/23 09:20:30;;;;;;;2.03;1.47;;;19.00;99.90;19.40;97011.00;;;;5075321;28;20196;-67
2021/08/23 09:23:19;;;;;;;2.60;1.90;;;18.90;99.90;19.30;97032.00;;;;5108263;27;20199;-67
2021/08/23 09:26:11;;;;;;;1.87;1.40;;;18.90;99.90;19.20;97046.00;;;;5096494;28;20204;-66
2021/08/23 09:29:04;;;;;;;3.30;2.30;;;18.80;99.90;19.20;97042.00;;;;5104522;28;20677;-65
2021/08/23 09:32:00;;;;;;;2.27;1.43;;;18.80;99.90;19.10;97044.00;;;;5103958;27;20240;-66
2021/08/23 09:34:49;;;;;;;3.07;1.63;;;18.70;99.90;19.00;97043.00;;;;5107455;27;20195;-67
2021/08/23 09:37:38;;;;;;;2.20;1.50;;;18.70;99.90;18.90;97034.00;;;;5098565;27;20600;-66
2021/08/23 09:40:31;;;;;;;0.97;0.87;;;18.60;99.90;18.80;97023.00;;;;5113149;27;20194;-67
2021/08/23 09:43:20;;;;;;;2.37;1.50;;;18.60;99.90;18.90;97015.00;;;;5107102;28;20202;-68
2021/08/23 09:46:13;;;;;;;3.20;1.47;;;18.50;99.90;18.90;97022.00;;;;5108857;27;20201;-66
2021/08/23 09:49:03;;;;;;;3.03;1.40;;;18.40;99.90;18.80;97024.00;;;;5109639;27;20198;-67
2021/08/23 09:51:52;;;;;;;1.70;1.60;;;19.60;99.90;18.70;97022.00;;;;5107669;27;20231;-66
2021/08/23 09:54:41;;;;;;;2.17;1.40;;;18.30;99.90;18.70;97024.00;;;;5100742;28;20221;-66
2021/08/23 09:57:32;;;;;;;1.60;1.50;;;18.30;99.90;18.90;97026.00;;;;5105703;27;20226;-67
2021/08/23 10:00:21;;;;;;;1.63;1.27;;;18.40;99.90;19.00;97031.00;;;;5118208;27;20255;-67
2021/08/23 10:03:17;;;;;;;2.67;1.57;;;18.40;99.90;18.90;97034.00;;;;5112630;27;20205;-67
2021/08/23 10:06:06;;;;;;;1.83;1.40;;;18.40;99.90;18.80;97027.00;;;;5105205;27;20629;-67
2021/08/23 10:08:55;;;;;;;2.57;2.20;;;18.40;99.90;18.80;97042.00;;;;5109649;27;20209;-68
2021/08/23 10:11:45;;;;;;;1.80;1.47;;;18.40;99.90;18.70;97043.00;;;;5111456;27;20233;-67
2021/08/23 10:14:35;;;;;;;2.73;1.80;;;18.30;99.90;18.90;97049.00;;;;5080974;28;20203;-66
2021/08/23 10:17:23;;;;;;;1.80;1.40;;;18.40;99.90;19.00;97042.00;;;;5087235;28;20227;-66
2021/08/23 10:20:15;;;;;;;3.43;1.60;;;18.40;99.90;18.90;97050.00;;;;5092166;28;20199;-67
2021/08/23 10:23:05;;;;;;;1.83;1.60;;;18.40;99.90;19.10;97047.00;;;;5087701;28;20214;-67
2021/08/23 10:25:57;;;;;;;4.50;1.57;;;18.50;99.90;19.30;97040.00;;;;5084614;28;20287;-66
2021/08/23 10:28:48;;;;;;;2.33;1.43;;;18.70;99.90;19.30;97044.00;;;;5082273;28;20666;-67
2021/08/23 10:31:40;;;;;;;2.87;1.63;;;18.70;99.90;19.30;97043.00;;;;5082244;28;20257;-67
2021/08/23 10:34:30;;;;;;;4.73;1.80;;;18.80;99.90;19.40;97046.00;;;;5086047;28;20199;-66
2021/08/23 10:37:25;;;;;;;1.13;1.03;;;18.90;99.90;19.30;97044.00;;;;5081642;28;20218;-67
2021/08/23 10:40:16;;;;;;;1.83;1.63;;;18.90;99.90;19.40;97042.00;;;;5086445;28;20218;-67
2021/08/23 10:43:14;;;;;;;3.07;1.53;;;18.90;99.90;19.60;97030.00;;;;5086880;28;20206;-67
2021/08/23 10:46:03;;;;;;;1.70;1.60;;;19.00;99.90;19.90;97038.00;;;;5086620;28;20210;-67
2021/08/23 10:48:53;;;;;;;3.57;1.90;;;19.10;99.90;20.10;97036.00;;;;5078672;28;20203;-66
2021/08/23 10:51:45;;;;;;;1.53;1.40;;;19.30;99.90;20.20;97036.00;;;;5078877;28;20238;-67
2021/08/23 10:54:38;;;;;;;2.00;1.80;;;19.40;99.90;20.30;97025.00;;;;5083885;28;20210;-66
2021/08/23 10:57:27;;;;;;;2.07;1.70;;;19.50;99.90;20.50;97034.00;;;;5085299;28;20206;-67
2021/08/23 11:00:18;;;;;;;2.57;2.10;;;19.60;99.90;20.40;97051.00;;;;5083679;28;20213;-66
2021/08/23 11:03:07;;;;;;;1.53;1.37;;;19.70;99.90;20.20;97062.00;;;;5085061;28;20629;-67
2021/08/23 11:06:04;;;;;;;1.37;1.27;;;19.70;99.90;20.20;97052.00;;;;5091616;28;20199;-68
2021/08/23 11:08:53;;;;;;;3.83;2.13;;;19.70;99.90;20.30;97046.00;;;;5083232;28;20219;-66
2021/08/23 11:11:44;;;;;;;2.00;1.70;;;19.70;99.90;20.10;97039.00;;;;5083097;28;20241;-67
2021/08/23 11:14:50;;;;;;;1.67;1.43;;;19.70;99.90;20.30;97033.00;;;;5076904;28;20203;-67
2021/08/23 11:17:46;;;;;;;3.23;1.37;;;19.70;99.90;20.50;97033.00;;;;5080136;28;20230;-66
2021/08/23 11:20:51;;;;;;;3.77;1.73;;;19.70;99.90;20.60;97026.00;;;;5083551;28;20254;-67
2021/08/23 11:23:40;;;;;;;2.67;1.47;;;19.80;99.90;20.60;97026.00;;;;5082096;28;20203;-67
2021/08/23 11:26:29;;;;;;;5.27;3.10;;;19.80;99.90;20.90;97033.00;;;;5085311;28;20210;-66
2021/08/23 11:29:22;;;;;;;2.00;1.73;;;19.90;99.90;20.90;97028.00;;;;5083656;28;20200;-67
2021/08/23 11:32:11;;;;;;;1.53;1.43;;;20.00;99.90;21.10;97031.00;;;;5086475;28;20214;-67
2021/08/23 11:35:01;;;;;;;3.83;2.00;;;20.20;99.90;21.10;97025.00;;;;5077004;28;20201;-66
2021/08/23 11:37:57;;;;;;;4.00;1.57;;;20.30;99.90;21.20;97016.00;;;;5083640;28;20199;-67
2021/08/23 11:40:47;;;;;;;1.20;1.10;;;20.50;99.90;21.20;97021.00;;;;5083715;28;20729;-66
2021/08/23 11:43:37;;;;;;;2.07;1.60;;;20.50;99.90;21.20;97018.00;;;;5083412;28;20570;-67
2021/08/23 11:46:27;;;;;;;2.43;1.33;;;20.60;99.90;21.20;97020.00;;;;5084737;28;20894;-67
2021/08/23 11:49:27;;;;;;;1.77;1.60;;;20.60;99.90;20.90;97020.00;;;;5085047;28;20703;-66
2021/08/23 11:52:19;;;;;;;4.80;1.50;;;20.50;99.90;21.00;97013.00;;;;5077111;28;20215;-66
2021/08/23 11:55:09;;;;;;;1.73;1.40;;;20.50;99.90;21.10;97011.00;;;;5084339;28;20239;-67
2021/08/23 11:58:00;;;;;;;2.30;1.40;;;20.40;99.90;21.10;97015.00;;;;5083402;28;20666;-67
2021/08/23 12:01:02;;;;;;;2.20;1.30;;;20.40;99.90;21.00;97008.00;;;;5083229;28;20241;-67
2021/08/23 12:03:59;;;;;;;1.50;1.40;;;20.30;99.90;20.90;96997.00;;;;5079311;28;20998;-67
2021/08/23 12:06:48;;;;;;;1.60;1.23;;;20.30;99.90;21.10;97005.00;;;;5083754;28;20696;-66
2021/08/23 12:09:37;;;;;;;1.60;1.30;;;20.30;99.90;21.10;96991.00;;;;5092992;28;20210;-66
2021/08/23 12:12:26;;;;;;;2.80;1.50;;;20.30;99.90;21.10;96987.00;;;;5082039;28;20235;-67
2021/08/23 12:15:20;;;;;;;1.30;1.20;;;20.40;99.90;21.20;96998.00;;;;5083762;28;20213;-67
2021/08/23 12:18:11;;;;;;;1.30;1.20;;;20.50;99.90;21.30;96982.00;;;;5083359;28;20578;-66
2021/08/23 12:21:15;;;;;;;2.20;1.73;;;20.60;99.90;21.30;96977.00;;;;5084297;28;20226;-67
2021/08/23 12:24:06;;;;;;;1.80;1.50;;;20.60;99.90;21.70;96976.00;;;;5081653;28;20195;-66
2021/08/23 12:26:59;;;;;;;2.87;1.50;;;20.80;99.90;22.00;96985.00;;;;5082185;28;20280;-66
2021/08/23 12:29:48;;;;;;;1.53;1.40;;;20.90;99.90;22.20;96983.00;;;;5081740;28;20682;-68
2021/08/23 12:32:37;;;;;;;2.50;1.57;;;21.20;99.90;22.10;96983.00;;;;5088334;28;20233;-67
2021/08/23 12:35:29;;;;;;;1.80;1.47;;;21.30;99.90;22.00;96983.00;;;;5089755;28;20211;-67
2021/08/23 12:38:19;;;;;;;2.03;1.50;;;21.40;99.90;22.20;96976.00;;;;5078019;28;20558;-67